sensor_id;sensor_type;location;lat;lon;timestamp;pressure;altitude;pressure_sealevel;temperature
71564;BMP180;59391;52.504;13.438;2023-05-03T00:00:21;102261.00;;;14.20
71564;BMP180;59391;52.504;13.438;2023-05-03T00:02:48;102264.00;;;14.20
71564;BMP180;59391;52.504;13.438;2023-05-03T00:05:13;102263.00;;;14.20
71564;BMP180;59391;52.504;13.438;2023-05-03T00:07:43;102269.00;;;14.20
71564;BMP180;59391;52.504;13.438;2023-05-03T00:10:10;102270.00;;;14.20
71564;BMP180;59391;52.504;13.438;2023-05-03T00:12:39;102262.00;;;14.20
71564;BMP180;59391;52.504;13.438;2023-05-03T00:15:06;102273.00;;;14.10
71564;BMP180;59391;52.504;13.438;2023-05-03T00:17:32;102279.00;;;14.10
71564;BMP180;59391;52.504;13.438;2023-05-03T00:19:57;102279.00;;;14.10
71564;BMP180;59391;52.504;13.438;2023-05-03T00:22:24;102261.00;;;14.10
71564;BMP180;59391;52.504;13.438;2023-05-03T00:24:50;102275.00;;;14.00
71564;BMP180;59391;52.504;13.438;2023-05-03T00:27:17;102257.00;;;14.00
71564;BMP180;59391;52.504;13.438;2023-05-03T00:29:42;102258.00;;;14.00
71564;BMP180;59391;52.504;13.438;2023-05-03T00:32:08;102274.00;;;14.00
71564;BMP180;59391;52.504;13.438;2023-05-03T00:34:36;102266.00;;;13.90
71564;BMP180;59391;52.504;13.438;2023-05-03T00:37:02;102271.00;;;13.90
71564;BMP180;59391;52.504;13.438;2023-05-03T00:39:30;102274.00;;;13.80
71564;BMP180;59391;52.504;13.438;2023-05-03T00:42:02;102271.00;;;13.80
71564;BMP180;59391;52.504;13.438;2023-05-03T00:44:29;102267.00;;;13.80
71564;BMP180;59391;52.504;13.438;2023-05-03T00:46:55;102272.00;;;13.70
71564;BMP180;59391;52.504;13.438;2023-05-03T00:49:23;102284.00;;;13.70
71564;BMP180;59391;52.504;13.438;2023-05-03T00:51:52;102280.00;;;13.70
71564;BMP180;59391;52.504;13.438;2023-05-03T00:54:18;102274.00;;;13.60
71564;BMP180;59391;52.504;13.438;2023-05-03T00:56:45;102271.00;;;13.60
71564;BMP180;59391;52.504;13.438;2023-05-03T00:59:11;102270.00;;;13.60
71564;BMP180;59391;52.504;13.438;2023-05-03T01:01:37;102275.00;;;13.50
71564;BMP180;59391;52.504;13.438;2023-05-03T01:04:05;102267.00;;;13.50
71564;BMP180;59391;52.504;13.438;2023-05-03T01:09:21;102278.00;;;13.40
71564;BMP180;59391;52.504;13.438;2023-05-03T01:12:33;102270.00;;;13.30
71564;BMP180;59391;52.504;13.438;2023-05-03T01:15:14;102268.00;;;13.20
71564;BMP180;59391;52.504;13.438;2023-05-03T01:17:50;102277.00;;;13.20
71564;BMP180;59391;52.504;13.438;2023-05-03T01:20:22;102272.00;;;13.10
71564;BMP180;59391;52.504;13.438;2023-05-03T01:25:23;102273.00;;;13.10
71564;BMP180;59391;52.504;13.438;2023-05-03T01:27:49;102266.00;;;13.00
71564;BMP180;59391;52.504;13.438;2023-05-03T01:30:16;102274.00;;;13.00
71564;BMP180;59391;52.504;13.438;2023-05-03T01:33:12;102279.00;;;12.90
71564;BMP180;59391;52.504;13.438;2023-05-03T01:35:52;102285.00;;;12.90
71564;BMP180;59391;52.504;13.438;2023-05-03T01:38:21;102279.00;;;12.90
71564;BMP180;59391;52.504;13.438;2023-05-03T01:40:55;102279.00;;;12.80
71564;BMP180;59391;52.504;13.438;2023-05-03T01:43:23;102276.00;;;12.80
71564;BMP180;59391;52.504;13.438;2023-05-03T01:45:50;102277.00;;;12.80
71564;BMP180;59391;52.504;13.438;2023-05-03T01:48:18;102277.00;;;12.70
71564;BMP180;59391;52.504;13.438;2023-05-03T01:50:44;102268.00;;;12.70
71564;BMP180;59391;52.504;13.438;2023-05-03T01:53:10;102272.00;;;12.70
71564;BMP180;59391;52.504;13.438;2023-05-03T01:55:36;102270.00;;;12.70
71564;BMP180;59391;52.504;13.438;2023-05-03T01:58:02;102272.00;;;12.60
71564;BMP180;59391;52.504;13.438;2023-05-03T02:00:28;102274.00;;;12.60
71564;BMP180;59391;52.504;13.438;2023-05-03T02:02:53;102267.00;;;12.60
71564;BMP180;59391;52.504;13.438;2023-05-03T02:05:19;102274.00;;;12.50
71564;BMP180;59391;52.504;13.438;2023-05-03T02:07:45;102274.00;;;12.50
71564;BMP180;59391;52.504;13.438;2023-05-03T02:10:10;102285.00;;;12.40
71564;BMP180;59391;52.504;13.438;2023-05-03T02:12:43;102283.00;;;12.40
71564;BMP180;59391;52.504;13.438;2023-05-03T02:15:10;102284.00;;;12.40
71564;BMP180;59391;52.504;13.438;2023-05-03T02:17:37;102285.00;;;12.40
71564;BMP180;59391;52.504;13.438;2023-05-03T02:20:04;102282.00;;;12.30
71564;BMP180;59391;52.504;13.438;2023-05-03T02:22:35;102290.00;;;12.30
71564;BMP180;59391;52.504;13.438;2023-05-03T02:25:01;102289.00;;;12.30
71564;BMP180;59391;52.504;13.438;2023-05-03T02:27:27;102285.00;;;12.30
71564;BMP180;59391;52.504;13.438;2023-05-03T02:29:52;102290.00;;;12.30
71564;BMP180;59391;52.504;13.438;2023-05-03T02:32:18;102302.00;;;12.30
71564;BMP180;59391;52.504;13.438;2023-05-03T02:34:47;102301.00;;;12.20
71564;BMP180;59391;52.504;13.438;2023-05-03T02:37:14;102300.00;;;12.20
71564;BMP180;59391;52.504;13.438;2023-05-03T02:39:40;102298.00;;;12.20
71564;BMP180;59391;52.504;13.438;2023-05-03T02:42:05;102298.00;;;12.20
71564;BMP180;59391;52.504;13.438;2023-05-03T02:44:32;102303.00;;;12.10
71564;BMP180;59391;52.504;13.438;2023-05-03T02:46:57;102306.00;;;12.10
71564;BMP180;59391;52.504;13.438;2023-05-03T02:49:23;102303.00;;;12.00
71564;BMP180;59391;52.504;13.438;2023-05-03T02:51:49;102299.00;;;12.00
71564;BMP180;59391;52.504;13.438;2023-05-03T02:54:14;102308.00;;;12.00
71564;BMP180;59391;52.504;13.438;2023-05-03T02:56:40;102302.00;;;11.90
71564;BMP180;59391;52.504;13.438;2023-05-03T02:59:06;102319.00;;;11.90
71564;BMP180;59391;52.504;13.438;2023-05-03T03:01:34;102300.00;;;11.90
71564;BMP180;59391;52.504;13.438;2023-05-03T03:04:00;102318.00;;;11.90
71564;BMP180;59391;52.504;13.438;2023-05-03T03:06:25;102322.00;;;11.80
71564;BMP180;59391;52.504;13.438;2023-05-03T03:08:51;102324.00;;;11.80
71564;BMP180;59391;52.504;13.438;2023-05-03T03:11:17;102317.00;;;11.80
71564;BMP180;59391;52.504;13.438;2023-05-03T03:13:42;102317.00;;;11.70
71564;BMP180;59391;52.504;13.438;2023-05-03T03:16:09;102312.00;;;11.70
71564;BMP180;59391;52.504;13.438;2023-05-03T03:18:35;102320.00;;;11.70
71564;BMP180;59391;52.504;13.438;2023-05-03T03:21:02;102319.00;;;11.70
71564;BMP180;59391;52.504;13.438;2023-05-03T03:23:28;102327.00;;;11.60
71564;BMP180;59391;52.504;13.438;2023-05-03T03:25:53;102323.00;;;11.60
71564;BMP180;59391;52.504;13.438;2023-05-03T03:28:19;102327.00;;;11.60
71564;BMP180;59391;52.504;13.438;2023-05-03T03:30:45;102325.00;;;11.60
71564;BMP180;59391;52.504;13.438;2023-05-03T03:33:11;102324.00;;;11.60
71564;BMP180;59391;52.504;13.438;2023-05-03T03:35:37;102333.00;;;11.50
71564;BMP180;59391;52.504;13.438;2023-05-03T03:38:03;102342.00;;;11.50
71564;BMP180;59391;52.504;13.438;2023-05-03T03:40:29;102333.00;;;11.50
71564;BMP180;59391;52.504;13.438;2023-05-03T03:42:55;102335.00;;;11.50
71564;BMP180;59391;52.504;13.438;2023-05-03T03:45:21;102345.00;;;11.40
71564;BMP180;59391;52.504;13.438;2023-05-03T03:47:46;102338.00;;;11.40
71564;BMP180;59391;52.504;13.438;2023-05-03T03:50:12;102344.00;;;11.40
71564;BMP180;59391;52.504;13.438;2023-05-03T03:52:38;102343.00;;;11.40
71564;BMP180;59391;52.504;13.438;2023-05-03T03:55:04;102349.00;;;11.30
71564;BMP180;59391;52.504;13.438;2023-05-03T03:57:30;102354.00;;;11.30
71564;BMP180;59391;52.504;13.438;2023-05-03T03:59:57;102350.00;;;11.30
71564;BMP180;59391;52.504;13.438;2023-05-03T04:02:22;102356.00;;;11.30
71564;BMP180;59391;52.504;13.438;2023-05-03T04:04:49;102351.00;;;11.30
71564;BMP180;59391;52.504;13.438;2023-05-03T04:07:14;102356.00;;;11.30
71564;BMP180;59391;52.504;13.438;2023-05-03T04:09:40;102363.00;;;11.30
71564;BMP180;59391;52.504;13.438;2023-05-03T04:12:06;102360.00;;;11.20
71564;BMP180;59391;52.504;13.438;2023-05-03T04:14:32;102367.00;;;11.20
71564;BMP180;59391;52.504;13.438;2023-05-03T04:16:57;102385.00;;;11.20
71564;BMP180;59391;52.504;13.438;2023-05-03T04:19:23;102367.00;;;11.20
71564;BMP180;59391;52.504;13.438;2023-05-03T04:21:50;102387.00;;;11.20
71564;BMP180;59391;52.504;13.438;2023-05-03T04:24:16;102383.00;;;11.20
71564;BMP180;59391;52.504;13.438;2023-05-03T04:26:42;102384.00;;;11.20
71564;BMP180;59391;52.504;13.438;2023-05-03T04:29:08;102384.00;;;11.20
71564;BMP180;59391;52.504;13.438;2023-05-03T04:31:36;102386.00;;;11.20
71564;BMP180;59391;52.504;13.438;2023-05-03T04:34:02;102388.00;;;11.20
71564;BMP180;59391;52.504;13.438;2023-05-03T04:36:28;102394.00;;;11.20
71564;BMP180;59391;52.504;13.438;2023-05-03T04:38:55;102397.00;;;11.20
71564;BMP180;59391;52.504;13.438;2023-05-03T04:41:20;102394.00;;;11.20
71564;BMP180;59391;52.504;13.438;2023-05-03T04:43:46;102393.00;;;11.20
71564;BMP180;59391;52.504;13.438;2023-05-03T04:46:12;102390.00;;;11.20
71564;BMP180;59391;52.504;13.438;2023-05-03T04:48:38;102403.00;;;11.20
71564;BMP180;59391;52.504;13.438;2023-05-03T04:51:04;102397.00;;;11.20
71564;BMP180;59391;52.504;13.438;2023-05-03T04:53:29;102409.00;;;11.20
71564;BMP180;59391;52.504;13.438;2023-05-03T04:55:55;102402.00;;;11.30
71564;BMP180;59391;52.504;13.438;2023-05-03T04:58:21;102403.00;;;11.30
71564;BMP180;59391;52.504;13.438;2023-05-03T05:00:46;102407.00;;;11.30
71564;BMP180;59391;52.504;13.438;2023-05-03T05:03:13;102408.00;;;11.30
71564;BMP180;59391;52.504;13.438;2023-05-03T05:05:39;102404.00;;;11.30
71564;BMP180;59391;52.504;13.438;2023-05-03T05:08:04;102405.00;;;11.40
71564;BMP180;59391;52.504;13.438;2023-05-03T05:10:30;102404.00;;;11.40
71564;BMP180;59391;52.504;13.438;2023-05-03T05:12:56;102407.00;;;11.40
71564;BMP180;59391;52.504;13.438;2023-05-03T05:15:22;102410.00;;;11.40
71564;BMP180;59391;52.504;13.438;2023-05-03T05:17:49;102403.00;;;11.40
71564;BMP180;59391;52.504;13.438;2023-05-03T05:20:15;102414.00;;;11.50
71564;BMP180;59391;52.504;13.438;2023-05-03T05:22:41;102411.00;;;11.50
71564;BMP180;59391;52.504;13.438;2023-05-03T05:25:07;102419.00;;;11.50
71564;BMP180;59391;52.504;13.438;2023-05-03T05:27:34;102415.00;;;11.60
71564;BMP180;59391;52.504;13.438;2023-05-03T05:30:00;102418.00;;;11.60
71564;BMP180;59391;52.504;13.438;2023-05-03T05:32:26;102419.00;;;11.60
71564;BMP180;59391;52.504;13.438;2023-05-03T05:34:51;102425.00;;;11.60
71564;BMP180;59391;52.504;13.438;2023-05-03T05:37:21;102425.00;;;11.60
71564;BMP180;59391;52.504;13.438;2023-05-03T05:39:47;102416.00;;;11.70
71564;BMP180;59391;52.504;13.438;2023-05-03T05:42:13;102421.00;;;11.70
71564;BMP180;59391;52.504;13.438;2023-05-03T05:44:39;102424.00;;;11.70
71564;BMP180;59391;52.504;13.438;2023-05-03T05:47:05;102440.00;;;11.80
71564;BMP180;59391;52.504;13.438;2023-05-03T05:49:31;102434.00;;;11.80
71564;BMP180;59391;52.504;13.438;2023-05-03T05:51:56;102440.00;;;11.80
71564;BMP180;59391;52.504;13.438;2023-05-03T05:54:22;102441.00;;;11.90
71564;BMP180;59391;52.504;13.438;2023-05-03T05:56:48;102432.00;;;11.90
71564;BMP180;59391;52.504;13.438;2023-05-03T05:59:15;102432.00;;;11.90
71564;BMP180;59391;52.504;13.438;2023-05-03T06:01:41;102447.00;;;12.00
71564;BMP180;59391;52.504;13.438;2023-05-03T06:04:09;102440.00;;;12.00
71564;BMP180;59391;52.504;13.438;2023-05-03T06:06:35;102450.00;;;12.00
71564;BMP180;59391;52.504;13.438;2023-05-03T06:09:01;102438.00;;;12.10
71564;BMP180;59391;52.504;13.438;2023-05-03T06:11:26;102446.00;;;12.10
71564;BMP180;59391;52.504;13.438;2023-05-03T06:13:52;102453.00;;;12.10
71564;BMP180;59391;52.504;13.438;2023-05-03T06:16:18;102441.00;;;12.20
71564;BMP180;59391;52.504;13.438;2023-05-03T06:18:43;102454.00;;;12.30
71564;BMP180;59391;52.504;13.438;2023-05-03T06:21:09;102458.00;;;12.30
71564;BMP180;59391;52.504;13.438;2023-05-03T06:23:36;102454.00;;;12.40
71564;BMP180;59391;52.504;13.438;2023-05-03T06:26:04;102462.00;;;12.40
71564;BMP180;59391;52.504;13.438;2023-05-03T06:28:29;102454.00;;;12.50
71564;BMP180;59391;52.504;13.438;2023-05-03T06:30:55;102462.00;;;12.50
71564;BMP180;59391;52.504;13.438;2023-05-03T06:33:21;102454.00;;;12.60
71564;BMP180;59391;52.504;13.438;2023-05-03T06:35:46;102471.00;;;12.60
71564;BMP180;59391;52.504;13.438;2023-05-03T06:38:12;102469.00;;;12.70
71564;BMP180;59391;52.504;13.438;2023-05-03T06:40:38;102458.00;;;12.70
71564;BMP180;59391;52.504;13.438;2023-05-03T06:43:06;102452.00;;;12.70
71564;BMP180;59391;52.504;13.438;2023-05-03T06:45:32;102459.00;;;12.80
71564;BMP180;59391;52.504;13.438;2023-05-03T06:47:58;102467.00;;;12.80
71564;BMP180;59391;52.504;13.438;2023-05-03T06:50:23;102458.00;;;12.90
71564;BMP180;59391;52.504;13.438;2023-05-03T06:52:50;102453.00;;;12.90
71564;BMP180;59391;52.504;13.438;2023-05-03T06:55:16;102471.00;;;13.00
71564;BMP180;59391;52.504;13.438;2023-05-03T06:57:42;102453.00;;;13.00
71564;BMP180;59391;52.504;13.438;2023-05-03T07:00:09;102450.00;;;13.10
71564;BMP180;59391;52.504;13.438;2023-05-03T07:02:35;102465.00;;;13.10
71564;BMP180;59391;52.504;13.438;2023-05-03T07:05:01;102460.00;;;13.20
71564;BMP180;59391;52.504;13.438;2023-05-03T07:07:27;102451.00;;;13.20
71564;BMP180;59391;52.504;13.438;2023-05-03T07:09:53;102465.00;;;13.20
71564;BMP180;59391;52.504;13.438;2023-05-03T07:12:18;102462.00;;;13.30
71564;BMP180;59391;52.504;13.438;2023-05-03T07:14:44;102466.00;;;13.30
71564;BMP180;59391;52.504;13.438;2023-05-03T07:17:10;102468.00;;;13.40
71564;BMP180;59391;52.504;13.438;2023-05-03T07:19:37;102458.00;;;13.40
71564;BMP180;59391;52.504;13.438;2023-05-03T07:22:03;102473.00;;;13.50
71564;BMP180;59391;52.504;13.438;2023-05-03T07:24:29;102464.00;;;13.60
71564;BMP180;59391;52.504;13.438;2023-05-03T07:26:56;102465.00;;;13.60
71564;BMP180;59391;52.504;13.438;2023-05-03T07:29:22;102460.00;;;13.70
71564;BMP180;59391;52.504;13.438;2023-05-03T07:31:50;102478.00;;;13.70
71564;BMP180;59391;52.504;13.438;2023-05-03T07:34:16;102470.00;;;13.80
71564;BMP180;59391;52.504;13.438;2023-05-03T07:36:42;102467.00;;;13.80
71564;BMP180;59391;52.504;13.438;2023-05-03T07:39:07;102468.00;;;13.80
71564;BMP180;59391;52.504;13.438;2023-05-03T07:41:36;102466.00;;;13.80
71564;BMP180;59391;52.504;13.438;2023-05-03T07:44:02;102470.00;;;13.80
71564;BMP180;59391;52.504;13.438;2023-05-03T07:46:27;102466.00;;;13.80
71564;BMP180;59391;52.504;13.438;2023-05-03T07:48:57;102457.00;;;13.80
71564;BMP180;59391;52.504;13.438;2023-05-03T07:51:22;102458.00;;;13.90
71564;BMP180;59391;52.504;13.438;2023-05-03T07:53:48;102458.00;;;13.90
71564;BMP180;59391;52.504;13.438;2023-05-03T07:56:14;102458.00;;;14.00
71564;BMP180;59391;52.504;13.438;2023-05-03T07:58:39;102460.00;;;14.10
71564;BMP180;59391;52.504;13.438;2023-05-03T08:01:05;102457.00;;;14.30
71564;BMP180;59391;52.504;13.438;2023-05-03T08:03:30;102450.00;;;14.40
71564;BMP180;59391;52.504;13.438;2023-05-03T08:05:56;102459.00;;;14.60
71564;BMP180;59391;52.504;13.438;2023-05-03T08:08:22;102452.00;;;14.70
71564;BMP180;59391;52.504;13.438;2023-05-03T08:10:51;102454.00;;;14.90
71564;BMP180;59391;52.504;13.438;2023-05-03T08:13:16;102448.00;;;15.00
71564;BMP180;59391;52.504;13.438;2023-05-03T08:15:42;102444.00;;;15.10
71564;BMP180;59391;52.504;13.438;2023-05-03T08:18:10;102446.00;;;15.20
71564;BMP180;59391;52.504;13.438;2023-05-03T08:20:35;102458.00;;;15.30
71564;BMP180;59391;52.504;13.438;2023-05-03T08:23:02;102442.00;;;15.30
71564;BMP180;59391;52.504;13.438;2023-05-03T08:25:27;102449.00;;;15.40
71564;BMP180;59391;52.504;13.438;2023-05-03T08:27:54;102449.00;;;15.50
71564;BMP180;59391;52.504;13.438;2023-05-03T08:30:20;102441.00;;;15.80
71564;BMP180;59391;52.504;13.438;2023-05-03T08:32:46;102449.00;;;16.70
71564;BMP180;59391;52.504;13.438;2023-05-03T08:35:12;102446.00;;;17.80
71564;BMP180;59391;52.504;13.438;2023-05-03T08:37:41;102447.00;;;18.80
71564;BMP180;59391;52.504;13.438;2023-05-03T08:40:08;102447.00;;;19.80
71564;BMP180;59391;52.504;13.438;2023-05-03T08:42:40;102447.00;;;20.80
71564;BMP180;59391;52.504;13.438;2023-05-03T08:45:10;102448.00;;;21.50
71564;BMP180;59391;52.504;13.438;2023-05-03T08:47:41;102457.00;;;22.10
71564;BMP180;59391;52.504;13.438;2023-05-03T08:50:11;102452.00;;;22.70
71564;BMP180;59391;52.504;13.438;2023-05-03T08:52:41;102457.00;;;23.40
71564;BMP180;59391;52.504;13.438;2023-05-03T08:55:09;102472.00;;;24.00
71564;BMP180;59391;52.504;13.438;2023-05-03T08:57:35;102468.00;;;24.30
71564;BMP180;59391;52.504;13.438;2023-05-03T09:00:03;102461.00;;;24.30
71564;BMP180;59391;52.504;13.438;2023-05-03T09:02:36;102464.00;;;24.10
71564;BMP180;59391;52.504;13.438;2023-05-03T09:07:59;102458.00;;;23.70
71564;BMP180;59391;52.504;13.438;2023-05-03T09:10:25;102473.00;;;23.80
71564;BMP180;59391;52.504;13.438;2023-05-03T09:13:00;102464.00;;;23.50
71564;BMP180;59391;52.504;13.438;2023-05-03T09:15:28;102476.00;;;23.60
71564;BMP180;59391;52.504;13.438;2023-05-03T09:18:18;102464.00;;;23.60
71564;BMP180;59391;52.504;13.438;2023-05-03T09:20:47;102462.00;;;23.60
71564;BMP180;59391;52.504;13.438;2023-05-03T09:25:51;102477.00;;;24.60
71564;BMP180;59391;52.504;13.438;2023-05-03T09:28:18;102462.00;;;25.30
71564;BMP180;59391;52.504;13.438;2023-05-03T09:30:45;102472.00;;;26.00
71564;BMP180;59391;52.504;13.438;2023-05-03T09:33:12;102470.00;;;26.40
71564;BMP180;59391;52.504;13.438;2023-05-03T09:35:59;102470.00;;;26.40
71564;BMP180;59391;52.504;13.438;2023-05-03T09:38:27;102483.00;;;26.30
71564;BMP180;59391;52.504;13.438;2023-05-03T09:40:53;102475.00;;;26.20
71564;BMP180;59391;52.504;13.438;2023-05-03T09:43:18;102473.00;;;26.00
71564;BMP180;59391;52.504;13.438;2023-05-03T09:45:44;102475.00;;;26.10
71564;BMP180;59391;52.504;13.438;2023-05-03T09:48:12;102476.00;;;25.80
71564;BMP180;59391;52.504;13.438;2023-05-03T09:50:38;102474.00;;;25.60
71564;BMP180;59391;52.504;13.438;2023-05-03T09:53:06;102473.00;;;25.70
71564;BMP180;59391;52.504;13.438;2023-05-03T09:55:39;102476.00;;;25.80
71564;BMP180;59391;52.504;13.438;2023-05-03T09:58:06;102467.00;;;25.40
71564;BMP180;59391;52.504;13.438;2023-05-03T10:00:37;102468.00;;;25.20
71564;BMP180;59391;52.504;13.438;2023-05-03T10:03:11;102463.00;;;25.30
71564;BMP180;59391;52.504;13.438;2023-05-03T10:05:47;102462.00;;;25.60
71564;BMP180;59391;52.504;13.438;2023-05-03T10:08:39;102457.00;;;26.20
71564;BMP180;59391;52.504;13.438;2023-05-03T10:11:08;102473.00;;;26.50
71564;BMP180;59391;52.504;13.438;2023-05-03T10:13:34;102458.00;;;26.80
71564;BMP180;59391;52.504;13.438;2023-05-03T10:16:14;102468.00;;;26.90
71564;BMP180;59391;52.504;13.438;2023-05-03T10:18:55;102465.00;;;27.20
71564;BMP180;59391;52.504;13.438;2023-05-03T10:21:54;102467.00;;;27.60
71564;BMP180;59391;52.504;13.438;2023-05-03T10:24:23;102462.00;;;27.90
71564;BMP180;59391;52.504;13.438;2023-05-03T10:26:50;102466.00;;;28.10
71564;BMP180;59391;52.504;13.438;2023-05-03T10:32:30;102459.00;;;28.70
71564;BMP180;59391;52.504;13.438;2023-05-03T10:35:05;102458.00;;;28.80
71564;BMP180;59391;52.504;13.438;2023-05-03T10:37:33;102458.00;;;28.70
71564;BMP180;59391;52.504;13.438;2023-05-03T10:40:16;102453.00;;;28.80
71564;BMP180;59391;52.504;13.438;2023-05-03T10:42:53;102457.00;;;28.60
71564;BMP180;59391;52.504;13.438;2023-05-03T10:45:26;102455.00;;;28.60
71564;BMP180;59391;52.504;13.438;2023-05-03T10:50:40;102449.00;;;28.20
71564;BMP180;59391;52.504;13.438;2023-05-03T10:53:07;102463.00;;;28.30
71564;BMP180;59391;52.504;13.438;2023-05-03T10:56:08;102445.00;;;28.30
71564;BMP180;59391;52.504;13.438;2023-05-03T10:58:46;102445.00;;;28.20
71564;BMP180;59391;52.504;13.438;2023-05-03T11:01:16;102449.00;;;28.20
71564;BMP180;59391;52.504;13.438;2023-05-03T11:04:10;102441.00;;;28.30
71564;BMP180;59391;52.504;13.438;2023-05-03T11:06:38;102443.00;;;28.40
71564;BMP180;59391;52.504;13.438;2023-05-03T11:09:07;102442.00;;;28.60
71564;BMP180;59391;52.504;13.438;2023-05-03T11:11:36;102441.00;;;28.70
71564;BMP180;59391;52.504;13.438;2023-05-03T11:14:04;102444.00;;;28.70
71564;BMP180;59391;52.504;13.438;2023-05-03T11:16:30;102449.00;;;28.70
71564;BMP180;59391;52.504;13.438;2023-05-03T11:18:56;102442.00;;;28.80
71564;BMP180;59391;52.504;13.438;2023-05-03T11:21:22;102433.00;;;28.90
71564;BMP180;59391;52.504;13.438;2023-05-03T11:23:48;102442.00;;;29.20
71564;BMP180;59391;52.504;13.438;2023-05-03T11:26:14;102438.00;;;29.50
71564;BMP180;59391;52.504;13.438;2023-05-03T11:28:42;102433.00;;;29.50
71564;BMP180;59391;52.504;13.438;2023-05-03T11:31:11;102430.00;;;29.30
71564;BMP180;59391;52.504;13.438;2023-05-03T11:33:39;102431.00;;;29.20
71564;BMP180;59391;52.504;13.438;2023-05-03T11:36:06;102431.00;;;29.10
71564;BMP180;59391;52.504;13.438;2023-05-03T11:38:36;102436.00;;;29.10
71564;BMP180;59391;52.504;13.438;2023-05-03T11:41:13;102436.00;;;29.40
71564;BMP180;59391;52.504;13.438;2023-05-03T11:43:48;102430.00;;;29.70
71564;BMP180;59391;52.504;13.438;2023-05-03T11:46:22;102431.00;;;29.70
71564;BMP180;59391;52.504;13.438;2023-05-03T11:48:49;102419.00;;;29.50
71564;BMP180;59391;52.504;13.438;2023-05-03T11:51:24;102422.00;;;28.90
71564;BMP180;59391;52.504;13.438;2023-05-03T11:53:50;102414.00;;;28.50
71564;BMP180;59391;52.504;13.438;2023-05-03T11:56:16;102412.00;;;28.30
71564;BMP180;59391;52.504;13.438;2023-05-03T11:58:54;102414.00;;;27.70
71564;BMP180;59391;52.504;13.438;2023-05-03T12:01:29;102414.00;;;27.50
71564;BMP180;59391;52.504;13.438;2023-05-03T12:04:00;102424.00;;;27.70
71564;BMP180;59391;52.504;13.438;2023-05-03T12:06:29;102417.00;;;28.10
71564;BMP180;59391;52.504;13.438;2023-05-03T12:08:55;102417.00;;;28.60
71564;BMP180;59391;52.504;13.438;2023-05-03T12:11:21;102416.00;;;29.10
71564;BMP180;59391;52.504;13.438;2023-05-03T12:14:00;102418.00;;;29.60
71564;BMP180;59391;52.504;13.438;2023-05-03T12:16:27;102414.00;;;29.80
71564;BMP180;59391;52.504;13.438;2023-05-03T12:18:55;102417.00;;;29.80
71564;BMP180;59391;52.504;13.438;2023-05-03T12:21:24;102412.00;;;30.00
71564;BMP180;59391;52.504;13.438;2023-05-03T12:23:51;102412.00;;;30.10
71564;BMP180;59391;52.504;13.438;2023-05-03T12:26:20;102410.00;;;29.90
71564;BMP180;59391;52.504;13.438;2023-05-03T12:28:49;102411.00;;;29.50
71564;BMP180;59391;52.504;13.438;2023-05-03T12:31:15;102406.00;;;29.00
71564;BMP180;59391;52.504;13.438;2023-05-03T12:33:42;102406.00;;;28.50
71564;BMP180;59391;52.504;13.438;2023-05-03T12:36:07;102403.00;;;28.30
71564;BMP180;59391;52.504;13.438;2023-05-03T12:38:33;102400.00;;;28.30
71564;BMP180;59391;52.504;13.438;2023-05-03T12:40:59;102402.00;;;28.40
71564;BMP180;59391;52.504;13.438;2023-05-03T12:43:25;102402.00;;;28.60
71564;BMP180;59391;52.504;13.438;2023-05-03T12:45:51;102397.00;;;28.50
71564;BMP180;59391;52.504;13.438;2023-05-03T12:48:17;102399.00;;;28.20
71564;BMP180;59391;52.504;13.438;2023-05-03T12:50:45;102408.00;;;27.80
71564;BMP180;59391;52.504;13.438;2023-05-03T12:53:11;102396.00;;;27.50
71564;BMP180;59391;52.504;13.438;2023-05-03T12:55:37;102384.00;;;27.30
71564;BMP180;59391;52.504;13.438;2023-05-03T12:58:03;102392.00;;;27.00
71564;BMP180;59391;52.504;13.438;2023-05-03T13:00:29;102385.00;;;26.70
71564;BMP180;59391;52.504;13.438;2023-05-03T13:02:55;102385.00;;;26.50
71564;BMP180;59391;52.504;13.438;2023-05-03T13:05:21;102389.00;;;26.80
71564;BMP180;59391;52.504;13.438;2023-05-03T13:07:46;102382.00;;;27.30
71564;BMP180;59391;52.504;13.438;2023-05-03T13:10:13;102385.00;;;27.70
71564;BMP180;59391;52.504;13.438;2023-05-03T13:12:39;102390.00;;;27.80
71564;BMP180;59391;52.504;13.438;2023-05-03T13:15:05;102381.00;;;27.80
71564;BMP180;59391;52.504;13.438;2023-05-03T13:17:31;102370.00;;;28.00
71564;BMP180;59391;52.504;13.438;2023-05-03T13:19:58;102376.00;;;28.00
71564;BMP180;59391;52.504;13.438;2023-05-03T13:22:23;102370.00;;;27.70
71564;BMP180;59391;52.504;13.438;2023-05-03T13:24:49;102366.00;;;27.40
71564;BMP180;59391;52.504;13.438;2023-05-03T13:27:15;102362.00;;;27.10
71564;BMP180;59391;52.504;13.438;2023-05-03T13:29:42;102354.00;;;26.60
71564;BMP180;59391;52.504;13.438;2023-05-03T13:32:08;102339.00;;;26.30
71564;BMP180;59391;52.504;13.438;2023-05-03T13:34:34;102341.00;;;26.00
71564;BMP180;59391;52.504;13.438;2023-05-03T13:37:03;102340.00;;;25.80
71564;BMP180;59391;52.504;13.438;2023-05-03T13:39:29;102347.00;;;25.80
71564;BMP180;59391;52.504;13.438;2023-05-03T13:41:54;102340.00;;;25.80
71564;BMP180;59391;52.504;13.438;2023-05-03T13:44:20;102339.00;;;26.20
71564;BMP180;59391;52.504;13.438;2023-05-03T13:46:49;102332.00;;;26.70
71564;BMP180;59391;52.504;13.438;2023-05-03T13:49:18;102341.00;;;27.20
71564;BMP180;59391;52.504;13.438;2023-05-03T13:51:44;102327.00;;;27.40
71564;BMP180;59391;52.504;13.438;2023-05-03T13:54:09;102327.00;;;27.30
71564;BMP180;59391;52.504;13.438;2023-05-03T13:56:37;102329.00;;;26.90
71564;BMP180;59391;52.504;13.438;2023-05-03T13:59:06;102324.00;;;26.50
71564;BMP180;59391;52.504;13.438;2023-05-03T14:01:34;102314.00;;;26.30
71564;BMP180;59391;52.504;13.438;2023-05-03T14:04:00;102319.00;;;26.10